sensor_id;sensor_type;location;lat;lon;timestamp;P1;durP1;ratioP1;P2;durP2;ratioP2
56599;SDS011;51832;48.152;11.530;2023-09-30T00:00:22;23.30;;;7.68;;
56599;SDS011;51832;48.152;11.530;2023-09-30T00:05:22;21.35;;;7.63;;
56599;SDS011;51832;48.152;11.530;2023-09-30T00:10:23;20.63;;;8.18;;
56599;SDS011;51832;48.152;11.530;2023-09-30T00:15:23;19.92;;;7.03;;
56599;SDS011;51832;48.152;11.530;2023-09-30T00:20:24;21.37;;;7.57;;
56599;SDS011;51832;48.152;11.530;2023-09-30T00:25:24;19.20;;;7.85;;
56599;SDS011;51832;48.152;11.530;2023-09-30T00:30:25;20.38;;;8.75;;
56599;SDS011;51832;48.152;11.530;2023-09-30T00:35:26;22.25;;;8.38;;
56599;SDS011;51832;48.152;11.530;2023-09-30T00:40:26;24.00;;;8.90;;
56599;SDS011;51832;48.152;11.530;2023-09-30T00:45:27;19.02;;;7.85;;
56599;SDS011;51832;48.152;11.530;2023-09-30T00:50:28;21.73;;;8.05;;
56599;SDS011;51832;48.152;11.530;2023-09-30T00:55:29;20.13;;;7.55;;
56599;SDS011;51832;48.152;11.530;2023-09-30T01:00:29;22.85;;;7.90;;
56599;SDS011;51832;48.152;11.530;2023-09-30T01:05:30;19.95;;;7.95;;
56599;SDS011;51832;48.152;11.530;2023-09-30T01:10:31;22.73;;;8.88;;
56599;SDS011;51832;48.152;11.530;2023-09-30T01:15:31;24.58;;;9.07;;
56599;SDS011;51832;48.152;11.530;2023-09-30T01:20:32;26.83;;;9.47;;
56599;SDS011;51832;48.152;11.530;2023-09-30T01:25:33;25.25;;;9.48;;
56599;SDS011;51832;48.152;11.530;2023-09-30T01:30:34;25.38;;;9.77;;
56599;SDS011;51832;48.152;11.530;2023-09-30T01:35:35;25.65;;;9.90;;
56599;SDS011;51832;48.152;11.530;2023-09-30T01:40:35;23.73;;;8.50;;
56599;SDS011;51832;48.152;11.530;2023-09-30T01:45:37;25.08;;;9.50;;
56599;SDS011;51832;48.152;11.530;2023-09-30T01:50:38;25.37;;;9.10;;
56599;SDS011;51832;48.152;11.530;2023-09-30T01:55:39;24.83;;;8.75;;
56599;SDS011;51832;48.152;11.530;2023-09-30T02:00:39;23.67;;;8.38;;
56599;SDS011;51832;48.152;11.530;2023-09-30T02:05:39;24.48;;;8.70;;
56599;SDS011;51832;48.152;11.530;2023-09-30T02:10:40;24.77;;;9.05;;
56599;SDS011;51832;48.152;11.530;2023-09-30T02:15:41;20.40;;;8.82;;
56599;SDS011;51832;48.152;11.530;2023-09-30T02:20:41;26.60;;;9.45;;
56599;SDS011;51832;48.152;11.530;2023-09-30T02:25:42;21.92;;;8.82;;
56599;SDS011;51832;48.152;11.530;2023-09-30T02:30:43;23.70;;;8.02;;
56599;SDS011;51832;48.152;11.530;2023-09-30T02:35:44;22.05;;;8.85;;
56599;SDS011;51832;48.152;11.530;2023-09-30T02:40:45;21.98;;;8.55;;
56599;SDS011;51832;48.152;11.530;2023-09-30T02:45:48;25.92;;;9.05;;
56599;SDS011;51832;48.152;11.530;2023-09-30T02:50:50;21.83;;;8.35;;
56599;SDS011;51832;48.152;11.530;2023-09-30T02:55:50;25.92;;;8.63;;
56599;SDS011;51832;48.152;11.530;2023-09-30T03:00:56;25.05;;;8.55;;
56599;SDS011;51832;48.152;11.530;2023-09-30T03:05:56;27.88;;;9.25;;
56599;SDS011;51832;48.152;11.530;2023-09-30T03:10:57;22.65;;;7.90;;
56599;SDS011;51832;48.152;11.530;2023-09-30T03:15:58;23.50;;;8.02;;
56599;SDS011;51832;48.152;11.530;2023-09-30T03:20:59;18.40;;;6.72;;
56599;SDS011;51832;48.152;11.530;2023-09-30T03:26:00;20.30;;;7.85;;
56599;SDS011;51832;48.152;11.530;2023-09-30T03:31:01;22.15;;;7.88;;
56599;SDS011;51832;48.152;11.530;2023-09-30T03:36:01;21.13;;;7.63;;
56599;SDS011;51832;48.152;11.530;2023-09-30T03:41:03;20.67;;;8.18;;
56599;SDS011;51832;48.152;11.530;2023-09-30T03:46:07;25.45;;;8.20;;
56599;SDS011;51832;48.152;11.530;2023-09-30T03:51:09;21.45;;;8.15;;
56599;SDS011;51832;48.152;11.530;2023-09-30T03:56:13;21.63;;;8.73;;
56599;SDS011;51832;48.152;11.530;2023-09-30T04:01:14;21.33;;;8.55;;
56599;SDS011;51832;48.152;11.530;2023-09-30T04:06:14;23.40;;;8.50;;
56599;SDS011;51832;48.152;11.530;2023-09-30T04:11:15;21.50;;;7.07;;
56599;SDS011;51832;48.152;11.530;2023-09-30T04:16:18;20.92;;;7.35;;
56599;SDS011;51832;48.152;11.530;2023-09-30T04:21:19;22.70;;;6.97;;
56599;SDS011;51832;48.152;11.530;2023-09-30T04:26:19;22.50;;;7.85;;
56599;SDS011;51832;48.152;11.530;2023-09-30T04:31:20;19.23;;;6.72;;
56599;SDS011;51832;48.152;11.530;2023-09-30T04:36:23;19.95;;;7.38;;
56599;SDS011;51832;48.152;11.530;2023-09-30T04:41:24;20.23;;;7.25;;
56599;SDS011;51832;48.152;11.530;2023-09-30T04:46:25;20.92;;;8.02;;
56599;SDS011;51832;48.152;11.530;2023-09-30T04:51:26;20.75;;;7.57;;
56599;SDS011;51832;48.152;11.530;2023-09-30T04:56:26;21.13;;;8.03;;
56599;SDS011;51832;48.152;11.530;2023-09-30T05:01:27;18.10;;;7.00;;
56599;SDS011;51832;48.152;11.530;2023-09-30T05:06:28;17.30;;;7.32;;
56599;SDS011;51832;48.152;11.530;2023-09-30T05:11:28;18.23;;;7.45;;
56599;SDS011;51832;48.152;11.530;2023-09-30T05:16:29;21.60;;;7.75;;
56599;SDS011;51832;48.152;11.530;2023-09-30T05:21:30;19.15;;;7.75;;
56599;SDS011;51832;48.152;11.530;2023-09-30T05:26:30;18.77;;;7.20;;
56599;SDS011;51832;48.152;11.530;2023-09-30T05:31:31;19.88;;;7.63;;
56599;SDS011;51832;48.152;11.530;2023-09-30T05:36:32;17.88;;;6.78;;
56599;SDS011;51832;48.152;11.530;2023-09-30T05:41:32;15.30;;;6.70;;
56599;SDS011;51832;48.152;11.530;2023-09-30T05:46:33;20.17;;;6.57;;
56599;SDS011;51832;48.152;11.530;2023-09-30T05:51:33;20.02;;;7.22;;
56599;SDS011;51832;48.152;11.530;2023-09-30T05:56:34;19.98;;;6.97;;
56599;SDS011;51832;48.152;11.530;2023-09-30T06:01:34;14.20;;;5.60;;
56599;SDS011;51832;48.152;11.530;2023-09-30T06:06:36;18.50;;;6.57;;
56599;SDS011;51832;48.152;11.530;2023-09-30T06:11:36;17.65;;;6.45;;
56599;SDS011;51832;48.152;11.530;2023-09-30T06:16:37;19.42;;;6.55;;
56599;SDS011;51832;48.152;11.530;2023-09-30T06:21:38;17.75;;;6.30;;
56599;SDS011;51832;48.152;11.530;2023-09-30T06:26:39;20.10;;;6.38;;
56599;SDS011;51832;48.152;11.530;2023-09-30T06:31:40;16.42;;;6.32;;
56599;SDS011;51832;48.152;11.530;2023-09-30T06:36:40;16.58;;;5.25;;
56599;SDS011;51832;48.152;11.530;2023-09-30T06:41:40;12.05;;;5.15;;
56599;SDS011;51832;48.152;11.530;2023-09-30T06:46:41;14.35;;;5.55;;
56599;SDS011;51832;48.152;11.530;2023-09-30T06:51:41;13.83;;;4.90;;
56599;SDS011;51832;48.152;11.530;2023-09-30T06:56:42;14.23;;;5.13;;
56599;SDS011;51832;48.152;11.530;2023-09-30T07:01:43;12.52;;;4.95;;
56599;SDS011;51832;48.152;11.530;2023-09-30T07:06:44;10.13;;;4.70;;
56599;SDS011;51832;48.152;11.530;2023-09-30T07:11:44;10.60;;;4.95;;
56599;SDS011;51832;48.152;11.530;2023-09-30T07:16:45;11.98;;;5.25;;
56599;SDS011;51832;48.152;11.530;2023-09-30T07:21:46;14.38;;;5.20;;
56599;SDS011;51832;48.152;11.530;2023-09-30T07:26:46;11.13;;;4.18;;
56599;SDS011;51832;48.152;11.530;2023-09-30T07:31:47;11.27;;;4.90;;
56599;SDS011;51832;48.152;11.530;2023-09-30T07:36:47;13.13;;;5.35;;
56599;SDS011;51832;48.152;11.530;2023-09-30T07:41:47;9.23;;;3.85;;
56599;SDS011;51832;48.152;11.530;2023-09-30T07:46:49;11.45;;;4.82;;
56599;SDS011;51832;48.152;11.530;2023-09-30T07:51:50;10.32;;;4.28;;
56599;SDS011;51832;48.152;11.530;2023-09-30T07:56:50;8.05;;;3.80;;
56599;SDS011;51832;48.152;11.530;2023-09-30T08:01:51;12.57;;;5.35;;
56599;SDS011;51832;48.152;11.530;2023-09-30T08:06:52;12.15;;;4.53;;
56599;SDS011;51832;48.152;11.530;2023-09-30T08:11:53;11.30;;;4.75;;
56599;SDS011;51832;48.152;11.530;2023-09-30T08:16:54;11.88;;;4.72;;
56599;SDS011;51832;48.152;11.530;2023-09-30T08:21:54;10.98;;;5.13;;
56599;SDS011;51832;48.152;11.530;2023-09-30T08:26:55;11.40;;;4.20;;
56599;SDS011;51832;48.152;11.530;2023-09-30T08:31:56;15.60;;;4.82;;
56599;SDS011;51832;48.152;11.530;2023-09-30T08:36:57;14.85;;;4.53;;
56599;SDS011;51832;48.152;11.530;2023-09-30T08:41:58;11.13;;;4.50;;
56599;SDS011;51832;48.152;11.530;2023-09-30T08:47:02;15.40;;;5.25;;
56599;SDS011;51832;48.152;11.530;2023-09-30T08:52:03;14.68;;;5.05;;
56599;SDS011;51832;48.152;11.530;2023-09-30T08:57:07;11.43;;;4.60;;
56599;SDS011;51832;48.152;11.530;2023-09-30T09:02:10;11.38;;;4.90;;
56599;SDS011;51832;48.152;11.530;2023-09-30T09:07:10;9.18;;;4.53;;
56599;SDS011;51832;48.152;11.530;2023-09-30T09:12:18;12.50;;;4.30;;
56599;SDS011;51832;48.152;11.530;2023-09-30T09:17:19;11.60;;;4.53;;
56599;SDS011;51832;48.152;11.530;2023-09-30T09:27:25;10.73;;;4.90;;
56599;SDS011;51832;48.152;11.530;2023-09-30T09:32:26;12.38;;;5.03;;
56599;SDS011;51832;48.152;11.530;2023-09-30T09:37:26;9.00;;;3.93;;
56599;SDS011;51832;48.152;11.530;2023-09-30T09:42:28;11.27;;;4.50;;
56599;SDS011;51832;48.152;11.530;2023-09-30T09:47:33;11.20;;;4.78;;
56599;SDS011;51832;48.152;11.530;2023-09-30T09:52:34;13.02;;;5.10;;
56599;SDS011;51832;48.152;11.530;2023-09-30T09:57:35;11.52;;;4.53;;
56599;SDS011;51832;48.152;11.530;2023-09-30T10:02:36;10.18;;;4.63;;
56599;SDS011;51832;48.152;11.530;2023-09-30T10:12:51;8.93;;;4.03;;
56599;SDS011;51832;48.152;11.530;2023-09-30T10:23:23;8.07;;;3.40;;
56599;SDS011;51832;48.152;11.530;2023-09-30T10:28:46;6.30;;;3.25;;
56599;SDS011;51832;48.152;11.530;2023-09-30T10:38:59;11.27;;;3.35;;
56599;SDS011;51832;48.152;11.530;2023-09-30T10:44:23;8.05;;;3.67;;
56599;SDS011;51832;48.152;11.530;2023-09-30T10:54:28;8.93;;;3.70;;
56599;SDS011;51832;48.152;11.530;2023-09-30T10:59:31;7.20;;;3.53;;
56599;SDS011;51832;48.152;11.530;2023-09-30T11:04:45;9.73;;;3.65;;
56599;SDS011;51832;48.152;11.530;2023-09-30T11:09:46;6.50;;;3.15;;
56599;SDS011;51832;48.152;11.530;2023-09-30T11:14:46;9.55;;;3.88;;
56599;SDS011;51832;48.152;11.530;2023-09-30T11:19:47;12.40;;;4.45;;
56599;SDS011;51832;48.152;11.530;2023-09-30T11:24:48;9.52;;;4.22;;
56599;SDS011;51832;48.152;11.530;2023-09-30T11:29:49;7.93;;;3.60;;
56599;SDS011;51832;48.152;11.530;2023-09-30T11:34:49;8.85;;;3.72;;
56599;SDS011;51832;48.152;11.530;2023-09-30T11:39:50;9.57;;;4.85;;
56599;SDS011;51832;48.152;11.530;2023-09-30T11:44:51;10.15;;;3.72;;
56599;SDS011;51832;48.152;11.530;2023-09-30T11:49:52;9.05;;;4.32;;
56599;SDS011;51832;48.152;11.530;2023-09-30T11:54:54;12.23;;;4.80;;
56599;SDS011;51832;48.152;11.530;2023-09-30T11:59:56;9.05;;;4.03;;
56599;SDS011;51832;48.152;11.530;2023-09-30T12:04:56;12.75;;;4.72;;
56599;SDS011;51832;48.152;11.530;2023-09-30T12:09:58;12.52;;;4.43;;
56599;SDS011;51832;48.152;11.530;2023-09-30T12:14:58;16.27;;;7.00;;
56599;SDS011;51832;48.152;11.530;2023-09-30T12:19:58;16.73;;;6.47;;
56599;SDS011;51832;48.152;11.530;2023-09-30T12:24:59;14.80;;;6.10;;
56599;SDS011;51832;48.152;11.530;2023-09-30T12:30:01;15.45;;;6.03;;
56599;SDS011;51832;48.152;11.530;2023-09-30T12:35:03;13.02;;;5.75;;
56599;SDS011;51832;48.152;11.530;2023-09-30T12:40:05;12.73;;;5.10;;
56599;SDS011;51832;48.152;11.530;2023-09-30T12:45:11;15.50;;;5.55;;
56599;SDS011;51832;48.152;11.530;2023-09-30T12:50:13;14.60;;;6.60;;
56599;SDS011;51832;48.152;11.530;2023-09-30T12:55:14;13.45;;;5.82;;
56599;SDS011;51832;48.152;11.530;2023-09-30T13:00:14;12.55;;;5.40;;
56599;SDS011;51832;48.152;11.530;2023-09-30T13:05:15;13.35;;;5.50;;
56599;SDS011;51832;48.152;11.530;2023-09-30T13:10:17;14.63;;;6.57;;
56599;SDS011;51832;48.152;11.530;2023-09-30T13:15:18;11.15;;;5.13;;
56599;SDS011;51832;48.152;11.530;2023-09-30T13:20:18;15.40;;;6.55;;
56599;SDS011;51832;48.152;11.530;2023-09-30T13:25:19;12.98;;;5.50;;
56599;SDS011;51832;48.152;11.530;2023-09-30T13:30:19;15.50;;;6.50;;
56599;SDS011;51832;48.152;11.530;2023-09-30T13:35:21;13.98;;;5.28;;
56599;SDS011;51832;48.152;11.530;2023-09-30T13:40:21;11.75;;;5.30;;
56599;SDS011;51832;48.152;11.530;2023-09-30T13:45:22;12.73;;;5.03;;
56599;SDS011;51832;48.152;11.530;2023-09-30T13:50:22;14.80;;;6.05;;
56599;SDS011;51832;48.152;11.530;2023-09-30T13:55:23;11.10;;;4.38;;
56599;SDS011;51832;48.152;11.530;2023-09-30T14:00:23;11.67;;;5.73;;
56599;SDS011;51832;48.152;11.530;2023-09-30T14:05:24;11.48;;;5.57;;
56599;SDS011;51832;48.152;11.530;2023-09-30T14:10:24;11.80;;;5.30;;
56599;SDS011;51832;48.152;11.530;2023-09-30T14:15:25;12.35;;;5.22;;
56599;SDS011;51832;48.152;11.530;2023-09-30T14:20:28;11.18;;;5.00;;
56599;SDS011;51832;48.152;11.530;2023-09-30T14:25:28;12.05;;;5.63;;
56599;SDS011;51832;48.152;11.530;2023-09-30T14:30:29;15.05;;;6.63;;
56599;SDS011;51832;48.152;11.530;2023-09-30T14:35:29;15.15;;;6.55;;
56599;SDS011;51832;48.152;11.530;2023-09-30T14:40:30;11.57;;;4.70;;
56599;SDS011;51832;48.152;11.530;2023-09-30T14:45:31;11.35;;;5.32;;
56599;SDS011;51832;48.152;11.530;2023-09-30T14:50:32;12.20;;;5.25;;
56599;SDS011;51832;48.152;11.530;2023-09-30T14:55:33;12.68;;;5.45;;
56599;SDS011;51832;48.152;11.530;2023-09-30T15:00:33;11.00;;;5.63;;
56599;SDS011;51832;48.152;11.530;2023-09-30T15:05:33;13.13;;;5.57;;
56599;SDS011;51832;48.152;11.530;2023-09-30T15:10:34;11.10;;;5.97;;
56599;SDS011;51832;48.152;11.530;2023-09-30T15:15:36;13.80;;;5.45;;
56599;SDS011;51832;48.152;11.530;2023-09-30T15:20:37;13.30;;;5.47;;
56599;SDS011;51832;48.152;11.530;2023-09-30T15:25:40;14.02;;;5.88;;
56599;SDS011;51832;48.152;11.530;2023-09-30T15:30:41;12.97;;;5.57;;
56599;SDS011;51832;48.152;11.530;2023-09-30T15:35:42;12.30;;;5.60;;
56599;SDS011;51832;48.152;11.530;2023-09-30T15:40:52;12.70;;;5.15;;
56599;SDS011;51832;48.152;11.530;2023-09-30T15:45:54;11.13;;;5.57;;
56599;SDS011;51832;48.152;11.530;2023-09-30T15:50:54;12.07;;;5.95;;
56599;SDS011;51832;48.152;11.530;2023-09-30T15:55:55;11.63;;;5.68;;
56599;SDS011;51832;48.152;11.530;2023-09-30T16:00:55;11.60;;;5.43;;
56599;SDS011;51832;48.152;11.530;2023-09-30T16:05:56;13.32;;;5.60;;
56599;SDS011;51832;48.152;11.530;2023-09-30T16:10:56;14.02;;;6.38;;
56599;SDS011;51832;48.152;11.530;2023-09-30T16:15:56;14.40;;;6.50;;
56599;SDS011;51832;48.152;11.530;2023-09-30T16:20:57;12.63;;;5.22;;
56599;SDS011;51832;48.152;11.530;2023-09-30T16:25:57;14.67;;;6.37;;
56599;SDS011;51832;48.152;11.530;2023-09-30T16:31:00;14.53;;;6.07;;
56599;SDS011;51832;48.152;11.530;2023-09-30T16:36:03;14.43;;;6.50;;
56599;SDS011;51832;48.152;11.530;2023-09-30T16:46:04;12.70;;;5.43;;
56599;SDS011;51832;48.152;11.530;2023-09-30T16:51:08;15.73;;;6.07;;
56599;SDS011;51832;48.152;11.530;2023-09-30T16:56:10;13.30;;;5.80;;
56599;SDS011;51832;48.152;11.530;2023-09-30T17:01:11;14.13;;;5.57;;
56599;SDS011;51832;48.152;11.530;2023-09-30T17:06:14;13.32;;;5.90;;
56599;SDS011;51832;48.152;11.530;2023-09-30T17:11:19;15.32;;;6.32;;
56599;SDS011;51832;48.152;11.530;2023-09-30T17:16:23;13.95;;;6.75;;
56599;SDS011;51832;48.152;11.530;2023-09-30T17:21:23;11.85;;;5.95;;
56599;SDS011;51832;48.152;11.530;2023-09-30T17:26:24;15.13;;;5.97;;
56599;SDS011;51832;48.152;11.530;2023-09-30T17:31:24;15.45;;;7.18;;
56599;SDS011;51832;48.152;11.530;2023-09-30T17:36:25;14.82;;;6.75;;
56599;SDS011;51832;48.152;11.530;2023-09-30T17:41:25;14.23;;;6.68;;
56599;SDS011;51832;48.152;11.530;2023-09-30T17:46:25;12.23;;;6.50;;
56599;SDS011;51832;48.152;11.530;2023-09-30T17:51:26;17.45;;;7.20;;
56599;SDS011;51832;48.152;11.530;2023-09-30T17:56:30;15.30;;;6.57;;
56599;SDS011;51832;48.152;11.530;2023-09-30T18:01:30;16.30;;;7.55;;
56599;SDS011;51832;48.152;11.530;2023-09-30T18:06:31;15.52;;;7.07;;
56599;SDS011;51832;48.152;11.530;2023-09-30T18:11:31;18.33;;;8.57;;
56599;SDS011;51832;48.152;11.530;2023-09-30T18:16:32;17.87;;;7.63;;
56599;SDS011;51832;48.152;11.530;2023-09-30T18:21:32;17.10;;;7.13;;
56599;SDS011;51832;48.152;11.530;2023-09-30T18:26:33;15.68;;;6.38;;
56599;SDS011;51832;48.152;11.530;2023-09-30T18:31:33;15.55;;;6.97;;
56599;SDS011;51832;48.152;11.530;2023-09-30T18:36:34;15.32;;;7.95;;
56599;SDS011;51832;48.152;11.530;2023-09-30T18:41:35;17.75;;;8.45;;
56599;SDS011;51832;48.152;11.530;2023-09-30T18:46:35;17.77;;;7.57;;
56599;SDS011;51832;48.152;11.530;2023-09-30T18:51:35;16.73;;;8.07;;
56599;SDS011;51832;48.152;11.530;2023-09-30T18:56:36;15.05;;;7.18;;
56599;SDS011;51832;48.152;11.530;2023-09-30T19:01:37;21.23;;;9.17;;
56599;SDS011;51832;48.152;11.530;2023-09-30T19:06:37;17.33;;;7.90;;
56599;SDS011;51832;48.152;11.530;2023-09-30T19:11:38;16.87;;;7.97;;
56599;SDS011;51832;48.152;11.530;2023-09-30T19:16:38;17.42;;;8.25;;
56599;SDS011;51832;48.152;11.530;2023-09-30T19:21:40;20.52;;;8.52;;
56599;SDS011;51832;48.152;11.530;2023-09-30T19:26:40;16.52;;;8.25;;
56599;SDS011;51832;48.152;11.530;2023-09-30T19:31:40;16.92;;;7.93;;
56599;SDS011;51832;48.152;11.530;2023-09-30T19:36:41;16.10;;;8.10;;
56599;SDS011;51832;48.152;11.530;2023-09-30T19:41:42;17.73;;;8.27;;
56599;SDS011;51832;48.152;11.530;2023-09-30T19:46:43;19.43;;;9.00;;
56599;SDS011;51832;48.152;11.530;2023-09-30T19:51:43;17.80;;;8.10;;
56599;SDS011;51832;48.152;11.530;2023-09-30T19:56:44;17.90;;;8.57;;
56599;SDS011;51832;48.152;11.530;2023-09-30T20:01:44;17.33;;;8.70;;
56599;SDS011;51832;48.152;11.530;2023-09-30T20:06:48;16.15;;;7.53;;
56599;SDS011;51832;48.152;11.530;2023-09-30T20:11:48;16.13;;;8.60;;
56599;SDS011;51832;48.152;11.530;2023-09-30T20:16:49;16.50;;;8.15;;
56599;SDS011;51832;48.152;11.530;2023-09-30T20:21:49;15.65;;;7.47;;
56599;SDS011;51832;48.152;11.530;2023-09-30T20:26:50;10.95;;;6.68;;
56599;SDS011;51832;48.152;11.530;2023-09-30T20:31:50;16.10;;;7.38;;
56599;SDS011;51832;48.152;11.530;2023-09-30T20:36:51;14.95;;;6.57;;
56599;SDS011;51832;48.152;11.530;2023-09-30T20:41:51;13.23;;;6.82;;
56599;SDS011;51832;48.152;11.530;2023-09-30T20:46:52;12.83;;;6.03;;
56599;SDS011;51832;48.152;11.530;2023-09-30T20:51:52;13.98;;;6.90;;
56599;SDS011;51832;48.152;11.530;2023-09-30T20:56:53;14.63;;;6.43;;
56599;SDS011;51832;48.152;11.530;2023-09-30T21:01:54;14.80;;;7.15;;
56599;SDS011;51832;48.152;11.530;2023-09-30T21:06:54;16.07;;;7.67;;
56599;SDS011;51832;48.152;11.530;2023-09-30T21:11:55;15.40;;;7.78;;
56599;SDS011;51832;48.152;11.530;2023-09-30T21:16:55;20.55;;;10.55;;
56599;SDS011;51832;48.152;11.530;2023-09-30T21:21:55;15.33;;;7.97;;
56599;SDS011;51832;48.152;11.530;2023-09-30T21:26:56;13.55;;;7.53;;
56599;SDS011;51832;48.152;11.530;2023-09-30T21:31:57;19.45;;;8.93;;
56599;SDS011;51832;48.152;11.530;2023-09-30T21:36:58;17.38;;;8.68;;
56599;SDS011;51832;48.152;11.530;2023-09-30T21:41:59;16.25;;;7.90;;
56599;SDS011;51832;48.152;11.530;2023-09-30T21:47:00;20.08;;;8.50;;
56599;SDS011;51832;48.152;11.530;2023-09-30T21:52:01;14.82;;;8.65;;
56599;SDS011;51832;48.152;11.530;2023-09-30T21:57:03;17.83;;;10.57;;
56599;SDS011;51832;48.152;11.530;2023-09-30T22:02:04;19.40;;;9.70;;
56599;SDS011;51832;48.152;11.530;2023-09-30T22:07:04;20.67;;;9.85;;
56599;SDS011;51832;48.152;11.530;2023-09-30T22:12:05;20.55;;;11.38;;
56599;SDS011;51832;48.152;11.530;2023-09-30T22:17:06;21.25;;;11.20;;
56599;SDS011;51832;48.152;11.530;2023-09-30T22:22:06;18.35;;;10.23;;
56599;SDS011;51832;48.152;11.530;2023-09-30T22:27:11;18.88;;;10.40;;
56599;SDS011;51832;48.152;11.530;2023-09-30T22:32:12;22.55;;;11.00;;
56599;SDS011;51832;48.152;11.530;2023-09-30T22:37:12;20.47;;;10.47;;
56599;SDS011;51832;48.152;11.530;2023-09-30T22:42:12;19.57;;;10.37;;
56599;SDS011;51832;48.152;11.530;2023-09-30T22:47:13;20.90;;;10.57;;
56599;SDS011;51832;48.152;11.530;2023-09-30T22:52:13;18.38;;;10.75;;
56599;SDS011;51832;48.152;11.530;2023-09-30T22:57:14;24.47;;;11.43;;
56599;SDS011;51832;48.152;11.530;2023-09-30T23:02:14;20.13;;;11.13;;
56599;SDS011;51832;48.152;11.530;2023-09-30T23:07:15;17.65;;;10.15;;
56599;SDS011;51832;48.152;11.530;2023-09-30T23:12:17;21.43;;;11.37;;
56599;SDS011;51832;48.152;11.530;2023-09-30T23:17:18;22.67;;;12.15;;
56599;SDS011;51832;48.152;11.530;2023-09-30T23:22:19;21.58;;;10.98;;
56599;SDS011;51832;48.152;11.530;2023-09-30T23:27:20;23.05;;;11.35;;
56599;SDS011;51832;48.152;11.530;2023-09-30T23:32:20;20.08;;;10.98;;
56599;SDS011;51832;48.152;11.530;2023-09-30T23:37:24;23.17;;;11.73;;
56599;SDS011;51832;48.152;11.530;2023-09-30T23:42:25;21.02;;;10.30;;
56599;SDS011;51832;48.152;11.530;2023-09-30T23:47:25;17.20;;;9.90;;
56599;SDS011;51832;48.152;11.530;2023-09-30T23:52:26;19.40;;;9.55;;
56599;SDS011;51832;48.152;11.530;2023-09-30T23:57:27;17.98;;;9.40;;
